Terminal Aerodrome Forecast
Issued by NWS Twin Cities, MN

Home | Current Version | Previous Version | Graphics & Text | Print | Product List | Glossary On
Versions: 1 2 3 4 5 6 7 8 9 10 11 12 13 14 15 16 17 18 19 20
000
FTUS43 KMPX 191100
TAFEAU
TAF
KEAU 191125Z 1912/2012 00000KT P6SM BKN200
     FM191400 19005KT P6SM SCT200
     FM191900 21010KT P6SM FEW200
     FM200000 25006KT P6SM SKC
     FM201000 32004KT P6SM SKC=

USA.gov is the U.S. government's official web portal to all federal, state and local government web resources and services.